createdAt,value
2023-02-19T00:02:38.182Z,100338.37
2023-02-19T00:05:41.240Z,100338.50
2023-02-19T00:08:44.410Z,100331.72
2023-02-19T00:11:48.442Z,100330.50
2023-02-19T00:14:51.660Z,100331.72
2023-02-19T00:17:54.162Z,100317.81
2023-02-19T00:20:57.946Z,100321.97
2023-02-19T00:24:04.660Z,100317.31
2023-02-19T00:27:07.165Z,100319.47
2023-02-19T00:30:10.366Z,100322.41
2023-02-19T00:33:13.227Z,100333.00
2023-02-19T00:36:16.166Z,100325.16
2023-02-19T00:39:19.007Z,100323.38
2023-02-19T00:42:21.778Z,100309.69
2023-02-19T00:45:24.687Z,100300.19
2023-02-19T00:48:27.592Z,100301.84
2023-02-19T00:51:31.865Z,100289.38
2023-02-19T00:54:35.586Z,100301.50
2023-02-19T00:57:38.274Z,100305.91
2023-02-19T01:00:41.795Z,100313.16
2023-02-19T01:03:45.830Z,100316.13
2023-02-19T01:06:49.409Z,100324.19
2023-02-19T01:09:55.153Z,100317.19
2023-02-19T01:12:58.966Z,100305.31
2023-02-19T01:16:07.011Z,100308.75
2023-02-19T01:19:10.594Z,100310.19
2023-02-19T01:22:14.174Z,100312.00
2023-02-19T01:25:23.954Z,100306.97
2023-02-19T01:28:32.364Z,100295.09
2023-02-19T01:31:36.465Z,100309.22
2023-02-19T01:34:40.169Z,100306.75
2023-02-19T01:37:43.375Z,100315.91
2023-02-19T01:40:56.702Z,100323.28
2023-02-19T01:44:03.379Z,100322.41
2023-02-19T01:47:05.819Z,100316.59
2023-02-19T01:50:08.506Z,100314.47
2023-02-19T01:53:16.860Z,100298.75
2023-02-19T01:56:21.435Z,100304.75
2023-02-19T01:59:27.126Z,100305.06
2023-02-19T02:02:30.456Z,100307.91
2023-02-19T02:05:55.913Z,100307.69
2023-02-19T02:09:17.693Z,100294.13
2023-02-19T02:12:26.222Z,100291.87
2023-02-19T02:15:36.678Z,100285.53
2023-02-19T02:18:45.410Z,100308.44
2023-02-19T02:22:01.967Z,100303.22
2023-02-19T02:25:07.570Z,100292.31
2023-02-19T02:28:21.130Z,100288.91
2023-02-19T02:31:34.037Z,100292.41
2023-02-19T02:34:59.751Z,100283.41
2023-02-19T02:38:14.628Z,100283.75
2023-02-19T02:41:17.115Z,100282.06
2023-02-19T02:44:24.927Z,100283.75
2023-02-19T02:47:43.464Z,100281.47
2023-02-19T02:50:58.840Z,100282.88
2023-02-19T02:54:42.288Z,100284.56
2023-02-19T02:57:48.722Z,100285.28
2023-02-19T03:01:17.305Z,100284.91
2023-02-19T03:05:00.310Z,100280.97
2023-02-19T03:08:23.046Z,100297.13
2023-02-19T03:11:50.740Z,100293.19
2023-02-19T03:15:20.328Z,100285.78
2023-02-19T03:18:43.136Z,100284.47
2023-02-19T03:22:06.554Z,100291.97
2023-02-19T03:25:38.710Z,100303.31
2023-02-19T03:29:04.740Z,100295.97
2023-02-19T03:32:21.422Z,100298.81
2023-02-19T03:35:30.912Z,100299.78
2023-02-19T03:38:53.656Z,100305.28
2023-02-19T03:41:59.640Z,100294.53
2023-02-19T03:45:13.562Z,100297.13
2023-02-19T03:48:58.435Z,100296.00
2023-02-19T03:52:12.550Z,100297.00
2023-02-19T03:55:22.053Z,100310.34
2023-02-19T03:58:31.370Z,100299.25
2023-02-19T04:01:43.437Z,100285.66
2023-02-19T04:05:02.954Z,100284.50
2023-02-19T04:08:11.690Z,100278.66
2023-02-19T04:11:24.568Z,100286.97
2023-02-19T04:14:40.015Z,100294.47
2023-02-19T04:18:02.194Z,100295.97
2023-02-19T04:21:11.267Z,100298.09
2023-02-19T04:24:15.366Z,100293.06
2023-02-19T04:27:22.467Z,100296.00
2023-02-19T04:30:27.832Z,100294.25
2023-02-19T04:33:37.515Z,100296.84
2023-02-19T04:36:40.440Z,100289.94
2023-02-19T04:39:45.792Z,100305.97
2023-02-19T04:42:53.304Z,100301.56
2023-02-19T04:46:03.701Z,100289.03
2023-02-19T04:49:09.844Z,100287.34
2023-02-19T04:52:13.014Z,100294.66
2023-02-19T04:55:19.028Z,100305.78
2023-02-19T04:58:25.040Z,100304.72
2023-02-19T05:01:28.027Z,100291.63
2023-02-19T05:04:36.804Z,100291.53
2023-02-19T05:07:41.388Z,100289.81
2023-02-19T05:10:45.094Z,100294.19
2023-02-19T05:13:51.064Z,100302.84
2023-02-19T05:17:00.902Z,100304.94
2023-02-19T05:20:04.032Z,100294.34
2023-02-19T05:23:11.145Z,100298.50
2023-02-19T05:26:18.346Z,100293.28
2023-02-19T05:29:27.633Z,100300.59
2023-02-19T05:32:30.809Z,100292.22
2023-02-19T05:35:46.394Z,100288.91
2023-02-19T05:38:54.828Z,100286.91
2023-02-19T05:42:00.238Z,100281.69
2023-02-19T05:45:10.423Z,100281.78
2023-02-19T05:48:18.533Z,100279.84
2023-02-19T05:51:25.099Z,100284.81
2023-02-19T05:54:31.200Z,100291.41
2023-02-19T05:57:36.332Z,100305.47
2023-02-19T06:00:39.000Z,100307.25
2023-02-19T06:03:41.638Z,100302.22
2023-02-19T06:06:45.550Z,100311.94
2023-02-19T06:09:52.613Z,100304.31
2023-02-19T06:12:56.492Z,100307.66
2023-02-19T06:16:01.044Z,100309.53
2023-02-19T06:19:08.026Z,100300.28
2023-02-19T06:22:15.366Z,100296.09
2023-02-19T06:25:22.792Z,100293.88
2023-02-19T06:28:30.503Z,100293.78
2023-02-19T06:31:35.343Z,100288.69
2023-02-19T06:34:41.903Z,100279.72
2023-02-19T06:37:54.848Z,100283.28
2023-02-19T06:41:02.536Z,100276.81
2023-02-19T06:44:06.184Z,100271.19
2023-02-19T06:47:09.540Z,100267.53
2023-02-19T06:50:17.066Z,100263.47
2023-02-19T06:53:24.226Z,100279.44
2023-02-19T06:56:27.692Z,100289.19
2023-02-19T06:59:29.903Z,100284.09
2023-02-19T07:02:34.219Z,100278.78
2023-02-19T07:05:38.589Z,100275.03
2023-02-19T07:08:47.039Z,100279.09
2023-02-19T07:11:55.328Z,100277.44
2023-02-19T07:15:05.229Z,100284.13
2023-02-19T07:18:19.694Z,100292.97
2023-02-19T07:21:29.249Z,100283.91
2023-02-19T07:24:36.378Z,100282.53
2023-02-19T07:27:44.596Z,100282.66
2023-02-19T07:30:50.412Z,100285.47
2023-02-19T07:33:56.568Z,100286.81
2023-02-19T07:37:06.414Z,100272.84
2023-02-19T07:40:10.631Z,100275.44
2023-02-19T07:43:21.346Z,100262.72
2023-02-19T07:46:26.704Z,100267.00
2023-02-19T07:49:37.072Z,100264.72
2023-02-19T07:52:45.843Z,100262.19
2023-02-19T07:55:52.067Z,100277.91
2023-02-19T07:59:03.252Z,100278.53
2023-02-19T08:02:35.892Z,100284.87
2023-02-19T08:05:39.490Z,100279.00
2023-02-19T08:08:43.073Z,100294.13
2023-02-19T08:12:04.838Z,100296.88
2023-02-19T08:15:07.409Z,100306.28
2023-02-19T08:18:18.081Z,100313.59
2023-02-19T08:21:22.361Z,100310.38
2023-02-19T08:24:24.581Z,100298.72
2023-02-19T08:27:27.547Z,100301.00
2023-02-19T08:30:31.327Z,100318.69
2023-02-19T08:33:35.606Z,100318.47
2023-02-19T08:36:38.380Z,100307.44
2023-02-19T08:39:40.438Z,100295.56
2023-02-19T08:42:42.971Z,100298.37
2023-02-19T08:45:46.412Z,100294.13
2023-02-19T08:48:49.107Z,100291.75
2023-02-19T08:51:51.282Z,100292.38
2023-02-19T08:54:53.749Z,100298.50
2023-02-19T08:57:56.466Z,100297.97
2023-02-19T09:00:58.763Z,100290.72
2023-02-19T09:04:01.263Z,100299.19
2023-02-19T09:07:07.611Z,100289.22
2023-02-19T09:10:13.724Z,100291.97
2023-02-19T09:13:16.140Z,100298.28
2023-02-19T09:16:18.246Z,100295.69
2023-02-19T09:19:20.232Z,100293.63
2023-02-19T09:22:22.223Z,100295.03
2023-02-19T09:25:24.715Z,100290.94
2023-02-19T09:28:29.465Z,100287.97
2023-02-19T09:31:31.816Z,100296.94
2023-02-19T09:34:36.544Z,100294.84
2023-02-19T09:37:38.506Z,100285.41
2023-02-19T09:40:40.548Z,100274.16
2023-02-19T09:43:42.965Z,100275.91
2023-02-19T09:46:50.235Z,100281.13
2023-02-19T09:49:54.668Z,100283.91
2023-02-19T09:52:58.664Z,100281.78
2023-02-19T09:56:01.561Z,100268.72
2023-02-19T09:59:03.879Z,100273.00
2023-02-19T10:02:16.920Z,100281.78
2023-02-19T10:05:19.459Z,100269.59
2023-02-19T10:08:21.999Z,100257.25
2023-02-19T10:11:25.913Z,100250.94
2023-02-19T10:14:42.027Z,100249.69
2023-02-19T10:17:45.625Z,100246.72
2023-02-19T10:20:49.760Z,100221.38
2023-02-19T10:23:57.029Z,100231.31
2023-02-19T10:27:01.072Z,100229.75
2023-02-19T10:30:03.331Z,100220.09
2023-02-19T10:33:10.245Z,100218.22
2023-02-19T10:36:22.814Z,100218.00
2023-02-19T10:39:33.361Z,100212.91
2023-02-19T10:42:35.846Z,100215.28
2023-02-19T10:45:48.081Z,100200.63
2023-02-19T10:49:02.253Z,100188.66
2023-02-19T10:52:19.478Z,100187.25
2023-02-19T10:55:22.478Z,100184.13
2023-02-19T10:58:29.558Z,100164.81
2023-02-19T11:01:34.320Z,100169.25
2023-02-19T11:04:38.838Z,100163.94
2023-02-19T11:08:00.339Z,100158.78
2023-02-19T11:11:04.148Z,100137.78
2023-02-19T11:14:28.717Z,100136.94
2023-02-19T11:17:34.306Z,100145.22
2023-02-19T11:20:38.041Z,100136.78
2023-02-19T11:23:51.131Z,100131.94
2023-02-19T11:26:59.011Z,100133.56
2023-02-19T11:30:26.439Z,100130.75
2023-02-19T11:33:32.146Z,100136.34
2023-02-19T11:36:35.966Z,100118.50
2023-02-19T11:39:42.648Z,100109.13
2023-02-19T11:42:51.054Z,100099.41
2023-02-19T11:46:13.554Z,100112.16
2023-02-19T11:49:37.271Z,100091.41
2023-02-19T11:52:51.169Z,100075.44
2023-02-19T11:56:00.585Z,100081.28
2023-02-19T11:59:15.544Z,100080.44
2023-02-19T12:02:19.754Z,100084.41
2023-02-19T12:05:24.775Z,100073.75
2023-02-19T12:08:31.295Z,100058.09
2023-02-19T12:11:36.984Z,100055.22
2023-02-19T12:14:40.540Z,100058.97
2023-02-19T12:18:04.933Z,100051.09
2023-02-19T12:21:38.088Z,100061.47
2023-02-19T12:24:50.451Z,100052.47
2023-02-19T12:28:19.649Z,100054.81
2023-02-19T12:31:51.286Z,100045.22
2023-02-19T12:35:14.787Z,100048.88
2023-02-19T12:38:34.521Z,100034.72
2023-02-19T12:41:44.541Z,100047.94
2023-02-19T12:45:13.966Z,100046.91
2023-02-19T12:48:32.602Z,100046.47
2023-02-19T12:51:41.622Z,100054.16
2023-02-19T12:54:56.057Z,100074.31
2023-02-19T12:58:06.127Z,100094.41
2023-02-19T13:01:11.234Z,100100.09
2023-02-19T13:04:32.301Z,100122.13
2023-02-19T13:07:40.886Z,100101.97
2023-02-19T13:11:09.232Z,100071.88
2023-02-19T13:14:11.143Z,100054.34
2023-02-19T13:17:28.910Z,100037.63
2023-02-19T13:20:39.298Z,100036.38
2023-02-19T13:23:58.359Z,100038.75
2023-02-19T13:27:00.223Z,100037.28
2023-02-19T13:30:31.632Z,100034.03
2023-02-19T13:33:45.020Z,100032.78
2023-02-19T13:36:48.890Z,100031.56
2023-02-19T13:39:52.563Z,100037.94
2023-02-19T13:42:55.922Z,100025.53
2023-02-19T13:46:00.569Z,100035.62
2023-02-19T13:49:21.507Z,100051.47
2023-02-19T13:52:29.938Z,100069.50
2023-02-19T13:55:46.894Z,100077.72
2023-02-19T13:58:54.074Z,100101.31
2023-02-19T14:01:57.451Z,100142.16
2023-02-19T14:05:02.316Z,100129.38
2023-02-19T14:08:05.380Z,100102.31
2023-02-19T14:11:09.018Z,100131.97
2023-02-19T14:14:23.410Z,100141.00
2023-02-19T14:17:27.292Z,100139.25
2023-02-19T14:20:45.677Z,100142.25
2023-02-19T14:23:52.413Z,100157.66
2023-02-19T14:26:56.517Z,100166.81
2023-02-19T14:29:58.856Z,100166.19
2023-02-19T14:33:10.219Z,100173.19
2023-02-19T14:36:40.613Z,100178.69
2023-02-19T14:39:44.239Z,100185.72
2023-02-19T14:42:46.387Z,100201.25
2023-02-19T14:45:51.105Z,100203.47
2023-02-19T14:48:53.343Z,100195.78
2023-02-19T14:52:04.702Z,100199.72
2023-02-19T14:55:09.504Z,100212.66
2023-02-19T14:58:14.464Z,100201.12
2023-02-19T15:01:28.975Z,100195.00
2023-02-19T15:04:36.289Z,100190.06
2023-02-19T15:07:39.039Z,100195.38
2023-02-19T15:10:42.343Z,100202.47
2023-02-19T15:13:48.694Z,100218.97
2023-02-19T15:16:55.960Z,100227.53
2023-02-19T15:20:00.726Z,100231.97
2023-02-19T15:23:05.137Z,100242.72
2023-02-19T15:26:19.711Z,100234.75
2023-02-19T15:29:24.934Z,100240.59
2023-02-19T15:32:28.593Z,100246.25
2023-02-19T15:35:33.914Z,100233.66
2023-02-19T15:38:37.006Z,100232.41
2023-02-19T15:41:39.785Z,100229.78
2023-02-19T15:44:53.682Z,100240.00
2023-02-19T15:47:58.971Z,100233.56
2023-02-19T15:51:13.699Z,100226.69
2023-02-19T15:54:27.487Z,100220.63
2023-02-19T15:57:35.365Z,100231.66
2023-02-19T16:00:52.759Z,100224.78
2023-02-19T16:03:56.090Z,100234.19
2023-02-19T16:07:03.096Z,100234.25
2023-02-19T16:10:20.852Z,100240.81
2023-02-19T16:13:24.932Z,100255.62
2023-02-19T16:16:34.392Z,100246.47
2023-02-19T16:19:47.961Z,100262.91
2023-02-19T16:22:56.556Z,100271.19
2023-02-19T16:26:02.491Z,100285.31
2023-02-19T16:29:07.422Z,100277.28
2023-02-19T16:32:17.198Z,100272.13
2023-02-19T16:35:55.929Z,100291.03
2023-02-19T16:39:18.230Z,100286.50
2023-02-19T16:42:30.729Z,100320.50
2023-02-19T16:45:35.996Z,100322.94
2023-02-19T16:48:42.367Z,100326.47
2023-02-19T16:51:45.964Z,100313.50
2023-02-19T16:54:49.956Z,100307.03
2023-02-19T16:58:00.015Z,100301.59
2023-02-19T17:01:06.303Z,100301.97
2023-02-19T17:04:12.720Z,100293.63
2023-02-19T17:07:17.182Z,100298.53
2023-02-19T17:10:26.422Z,100315.00
2023-02-19T17:13:31.320Z,100317.50
2023-02-19T17:16:41.227Z,100318.87
2023-02-19T17:19:47.100Z,100327.22
2023-02-19T17:22:49.321Z,100319.59
2023-02-19T17:25:52.549Z,100321.47
2023-02-19T17:29:05.336Z,100310.22
2023-02-19T17:32:11.073Z,100321.19
2023-02-19T17:35:14.803Z,100325.31
2023-02-19T17:38:18.592Z,100329.66
2023-02-19T17:41:25.267Z,100331.09
2023-02-19T17:44:28.045Z,100345.94
2023-02-19T17:47:42.706Z,100347.72
2023-02-19T17:50:49.984Z,100346.81
2023-02-19T17:53:52.596Z,100349.97
2023-02-19T17:56:54.848Z,100369.69
2023-02-19T18:00:02.762Z,100371.44
2023-02-19T18:03:08.905Z,100371.94
2023-02-19T18:06:12.243Z,100367.81
2023-02-19T18:09:20.016Z,100360.84
2023-02-19T18:12:23.653Z,100361.50
2023-02-19T18:15:30.262Z,100367.25
2023-02-19T18:18:34.380Z,100374.78
2023-02-19T18:21:37.427Z,100390.06
2023-02-19T18:24:55.545Z,100396.84
2023-02-19T18:28:00.756Z,100412.59
2023-02-19T18:31:05.905Z,100425.44
2023-02-19T18:34:16.593Z,100431.31
2023-02-19T18:37:23.873Z,100436.94
2023-02-19T18:40:27.594Z,100446.00
2023-02-19T18:43:34.369Z,100467.22
2023-02-19T18:46:38.141Z,100462.19
2023-02-19T18:49:45.419Z,100471.69
2023-02-19T18:52:55.508Z,100475.22
2023-02-19T18:56:02.808Z,100495.47
2023-02-19T18:59:05.528Z,100502.38
2023-02-19T19:02:10.230Z,100500.31
2023-02-19T19:05:14.741Z,100509.50
2023-02-19T19:08:19.679Z,100513.78
2023-02-19T19:11:24.725Z,100520.94
2023-02-19T19:14:28.241Z,100535.06
2023-02-19T19:17:32.327Z,100533.13
2023-02-19T19:20:34.892Z,100533.25
2023-02-19T19:23:40.267Z,100530.66
2023-02-19T19:26:47.539Z,100530.06
2023-02-19T19:29:51.683Z,100535.97
2023-02-19T19:32:57.990Z,100539.81
2023-02-19T19:36:03.877Z,100535.53
2023-02-19T19:39:06.662Z,100541.75
2023-02-19T19:42:12.003Z,100544.63
2023-02-19T19:45:16.888Z,100535.72
2023-02-19T19:48:24.433Z,100540.84
2023-02-19T19:51:36.125Z,100542.22
2023-02-19T19:54:46.170Z,100550.94
2023-02-19T19:57:53.156Z,100560.78
2023-02-19T20:00:55.745Z,100555.66
2023-02-19T20:04:03.645Z,100565.50
2023-02-19T20:07:08.891Z,100577.66
2023-02-19T20:10:13.631Z,100568.25
2023-02-19T20:13:19.571Z,100582.34
2023-02-19T20:16:29.538Z,100581.34
2023-02-19T20:19:40.098Z,100595.81
2023-02-19T20:22:47.000Z,100615.03
2023-02-19T20:25:50.535Z,100624.31
2023-02-19T20:28:55.100Z,100632.22
2023-02-19T20:32:01.091Z,100638.50
2023-02-19T20:35:04.746Z,100648.47
2023-02-19T20:38:11.128Z,100659.38
2023-02-19T20:41:15.079Z,100670.03
2023-02-19T20:44:18.028Z,100669.44
2023-02-19T20:47:24.601Z,100682.25
2023-02-19T20:50:28.309Z,100693.12
2023-02-19T20:53:34.676Z,100684.84
2023-02-19T20:56:38.879Z,100709.00
2023-02-19T20:59:48.325Z,100706.62
2023-02-19T21:02:54.053Z,100711.47
2023-02-19T21:06:02.509Z,100710.88
2023-02-19T21:09:08.463Z,100717.59
2023-02-19T21:12:12.078Z,100715.72
2023-02-19T21:15:15.159Z,100716.78
2023-02-19T21:18:18.125Z,100726.28
2023-02-19T21:21:22.366Z,100719.25
2023-02-19T21:24:26.637Z,100715.44
2023-02-19T21:27:30.037Z,100715.31
2023-02-19T21:30:33.205Z,100723.47
2023-02-19T21:33:40.781Z,100720.78
2023-02-19T21:36:45.403Z,100732.63
2023-02-19T21:39:47.780Z,100733.84
2023-02-19T21:42:51.792Z,100733.47
2023-02-19T21:45:55.629Z,100738.03
2023-02-19T21:48:58.794Z,100735.84
2023-02-19T21:52:02.498Z,100730.22
2023-02-19T21:55:07.236Z,100717.41
2023-02-19T21:58:13.185Z,100729.88
2023-02-19T22:01:29.081Z,100730.09
2023-02-19T22:04:33.211Z,100742.34
2023-02-19T22:07:36.842Z,100746.25
2023-02-19T22:10:42.604Z,100741.31
2023-02-19T22:13:46.151Z,100756.09
2023-02-19T22:16:51.046Z,100762.25
2023-02-19T22:20:00.941Z,100744.25
2023-02-19T22:23:17.969Z,100746.34
2023-02-19T22:26:42.879Z,100772.56
2023-02-19T22:29:55.987Z,100774.25
2023-02-19T22:33:01.643Z,100779.09
2023-02-19T22:36:09.646Z,100784.41
2023-02-19T22:39:19.873Z,100776.00
2023-02-19T22:42:35.923Z,100784.03
2023-02-19T22:45:46.069Z,100778.78
2023-02-19T22:48:54.076Z,100785.03
2023-02-19T22:52:06.366Z,100776.50
2023-02-19T22:55:11.505Z,100804.13
2023-02-19T22:58:17.163Z,100799.13
2023-02-19T23:01:31.373Z,100808.84
2023-02-19T23:04:35.662Z,100813.09
2023-02-19T23:07:53.066Z,100817.38
2023-02-19T23:10:58.854Z,100823.50
2023-02-19T23:14:12.089Z,100816.78
2023-02-19T23:17:23.354Z,100818.62
2023-02-19T23:20:31.147Z,100823.87
2023-02-19T23:23:37.814Z,100844.75
2023-02-19T23:26:58.208Z,100847.47
2023-02-19T23:30:01.989Z,100859.69
2023-02-19T23:33:05.722Z,100860.63
2023-02-19T23:36:08.808Z,100866.94
2023-02-19T23:39:13.532Z,100880.09
2023-02-19T23:42:19.319Z,100880.16
2023-02-19T23:45:24.774Z,100892.19
2023-02-19T23:48:29.517Z,100889.59
2023-02-19T23:51:35.748Z,100895.53
2023-02-19T23:54:42.933Z,100895.41
2023-02-19T23:57:48.140Z,100907.63
